Time;durP1;ratioP1;P1;durP2;ratioP2;P2;SDS_P1;SDS_P2;PMS_P1;PMS_P2;Temp;Humidity;BMP_temperature;BMP_pressure;BME280_temperature;BME280_humidity;BME280_pressure;Samples;Min_cycle;Max_cycle;Signal;HPM_P1;HPM_P2
2023/08/08 00:00:51;;;;;;;0.50;0.35;;;;;;;25.08;35.96;98693.03;2087739;28;21094;-50
2023/08/08 00:01:53;;;;;;;2.75;0.40;;;;;;;25.06;35.94;98695.16;2088813;28;20099;-49
2023/08/08 00:02:54;;;;;;;1.08;0.55;;;;;;;25.08;36.09;98693.03;2088339;28;20045;-50
2023/08/08 00:03:57;;;;;;;0.32;0.20;;;;;;;25.10;35.77;98692.78;2087373;28;20108;-49
2023/08/08 00:04:58;;;;;;;0.80;0.73;;;;;;;25.08;35.85;98693.03;2087016;28;20045;-52
2023/08/08 00:06:00;;;;;;;3.13;0.63;;;;;;;25.08;35.94;98686.78;2086957;28;20132;-50
2023/08/08 00:07:01;;;;;;;1.90;0.55;;;;;;;25.09;35.84;98689.25;2087218;28;20130;-49
2023/08/08 00:08:02;;;;;;;2.35;0.45;;;;;;;25.09;36.12;98689.25;2084859;28;20068;-53
2023/08/08 00:09:03;;;;;;;0.65;0.45;;;;;;;25.10;36.02;98690.06;2085918;28;20048;-47
2023/08/08 00:10:05;;;;;;;0.30;0.28;;;;;;;25.08;36.15;98693.03;2088304;28;20515;-53
2023/08/08 00:11:07;;;;;;;0.65;0.40;;;;;;;25.07;35.80;98690.53;2088493;28;20063;-48
2023/08/08 00:12:08;;;;;;;0.30;0.20;;;;;;;25.06;35.86;98695.16;2085666;28;21412;-50
2023/08/08 00:13:10;;;;;;;3.00;0.50;;;;;;;25.02;35.37;98691.31;2088317;28;20563;-50
2023/08/08 00:14:11;;;;;;;0.70;0.40;;;;;;;25.02;35.55;98691.31;2087744;28;20123;-51
2023/08/08 00:15:13;;;;;;;1.00;0.50;;;;;;;25.00;35.13;98695.31;2085969;28;20052;-52
2023/08/08 00:16:14;;;;;;;1.75;0.47;;;;;;;25.03;35.07;98697.53;2087047;28;20071;-48
2023/08/08 00:17:14;;;;;;;1.88;0.40;;;;;;;24.99;35.11;98691.78;2085452;28;20044;-53
2023/08/08 00:18:16;;;;;;;0.82;0.57;;;;;;;24.97;35.25;98696.63;2087646;28;20075;-47
2023/08/08 00:19:18;;;;;;;0.60;0.50;;;;;;;25.00;34.89;98693.44;2087551;28;20072;-49
2023/08/08 00:20:20;;;;;;;1.27;0.28;;;;;;;25.02;34.51;98701.31;2085749;28;20514;-52
2023/08/08 00:21:22;;;;;;;1.23;0.80;;;;;;;25.03;34.94;98705.69;2086800;28;20087;-51
2023/08/08 00:22:23;;;;;;;0.40;0.30;;;;;;;24.99;34.88;98702.66;2087372;28;20044;-52
2023/08/08 00:23:24;;;;;;;1.38;0.43;;;;;;;24.96;34.67;98706.66;2087932;28;20187;-51
2023/08/08 00:24:26;;;;;;;0.73;0.40;;;;;;;24.96;34.72;98703.09;2087558;28;20235;-51
2023/08/08 00:25:27;;;;;;;0.50;0.40;;;;;;;24.96;34.41;98705.81;2085469;28;20049;-54
2023/08/08 00:26:29;;;;;;;0.70;0.30;;;;;;;24.96;34.70;98705.81;2087496;28;20087;-52
2023/08/08 00:27:30;;;;;;;1.33;0.40;;;;;;;24.97;35.07;98707.50;2087751;28;20091;-52
2023/08/08 00:28:31;;;;;;;0.45;0.28;;;;;;;24.98;34.52;98703.69;2087090;28;20052;-55
2023/08/08 00:29:32;;;;;;;0.60;0.40;;;;;;;25.02;34.85;98715.72;2087215;28;20083;-50
2023/08/08 00:30:34;;;;;;;0.95;0.40;;;;;;;25.02;34.95;98704.03;2088672;28;20056;-51
2023/08/08 00:31:35;;;;;;;0.25;0.20;;;;;;;25.02;35.02;98704.88;2088505;28;20059;-53
2023/08/08 00:32:37;;;;;;;1.73;0.50;;;;;;;24.98;34.67;98703.69;2086052;28;20588;-54
2023/08/08 00:33:38;;;;;;;2.05;0.35;;;;;;;24.97;34.63;98710.19;2085889;28;20481;-51
2023/08/08 00:34:41;;;;;;;0.93;0.32;;;;;;;24.95;34.83;98709.63;2084954;28;20147;-48
2023/08/08 00:35:42;;;;;;;2.38;0.30;;;;;;;24.94;34.84;98703.38;2084499;28;20045;-50
2023/08/08 00:36:44;;;;;;;0.85;0.85;;;;;;;24.96;34.37;98705.81;2087156;28;20420;-52
2023/08/08 00:37:45;;;;;;;2.33;0.47;;;;;;;24.90;34.56;98704.09;2087507;28;20049;-51
2023/08/08 00:38:48;;;;;;;0.52;0.30;;;;;;;24.86;34.11;98702.94;2087804;28;20051;-50
2023/08/08 00:39:49;;;;;;;1.67;0.43;;;;;;;24.86;33.91;98708.38;2087187;28;20840;-48
2023/08/08 00:40:51;;;;;;;0.98;0.35;;;;;;;24.83;34.42;98706.97;2088111;28;20052;-51
2023/08/08 00:41:52;;;;;;;3.53;0.40;;;;;;;24.82;33.86;98702.59;2088037;28;20044;-52
2023/08/08 00:42:54;;;;;;;0.60;0.35;;;;;;;24.84;34.12;98697.75;2086710;28;20357;-51
2023/08/08 00:43:55;;;;;;;0.20;0.20;;;;;;;24.86;34.02;98703.75;2087862;28;20203;-49
2023/08/08 00:45:01;;;;;;;1.77;0.25;;;;;;;24.92;34.11;98696.53;2081391;28;20156;-53
2023/08/08 00:46:02;;;;;;;0.70;0.40;;;;;;;24.93;34.21;98695.47;2076516;28;20102;-53
2023/08/08 00:47:05;;;;;;;0.70;0.35;;;;;;;24.95;34.12;98705.00;2083320;28;20445;-53
2023/08/08 00:48:06;;;;;;;0.65;0.57;;;;;;;24.95;34.54;98698.75;2085935;28;20048;-53
2023/08/08 00:49:08;;;;;;;0.80;0.50;;;;;;;25.00;34.64;98704.28;2085740;28;20040;-53
2023/08/08 00:50:11;;;;;;;1.75;0.43;;;;;;;25.00;34.87;98707.00;2085288;28;20071;-47
2023/08/08 00:51:13;;;;;;;2.05;0.95;;;;;;;24.97;34.88;98710.19;2086276;28;20044;-51
2023/08/08 00:52:14;;;;;;;0.75;0.50;;;;;;;25.00;34.91;98706.19;2086796;28;20076;-51
2023/08/08 00:53:16;;;;;;;2.05;0.30;;;;;;;25.01;34.80;98707.81;2085743;28;20056;-50
2023/08/08 00:54:19;;;;;;;0.22;0.20;;;;;;;24.99;35.03;98710.78;2088525;28;20525;-50
2023/08/08 00:55:22;;;;;;;0.93;0.57;;;;;;;24.97;34.59;98715.63;2086831;28;20418;-52
2023/08/08 00:56:23;;;;;;;0.75;0.38;;;;;;;24.98;34.43;98714.53;2086493;28;20044;-49
2023/08/08 00:57:25;;;;;;;1.23;0.50;;;;;;;24.98;35.07;98714.53;2085416;28;20405;-53
2023/08/08 00:58:27;;;;;;;3.17;0.43;;;;;;;24.99;35.07;98716.22;2086563;28;20048;-54
2023/08/08 00:59:28;;;;;;;1.48;0.43;;;;;;;25.00;35.24;98719.75;2088209;28;20660;-47
2023/08/08 01:00:29;;;;;;;0.43;0.20;;;;;;;24.98;35.02;98723.50;2086715;28;20501;-48
2023/08/08 01:01:31;;;;;;;1.27;0.50;;;;;;;24.95;34.84;98723.19;2087542;28;20059;-53
2023/08/08 01:02:32;;;;;;;3.38;0.68;;;;;;;24.83;34.86;98725.94;2085994;28;20423;-53
2023/08/08 01:03:33;;;;;;;0.75;0.45;;;;;;;24.75;34.67;98727.16;2085309;28;20049;-55
2023/08/08 01:04:35;;;;;;;2.25;0.47;;;;;;;24.75;34.38;98729.88;2088831;28;20051;-54
2023/08/08 01:05:43;;;;;;;1.60;0.50;;;;;;;24.81;34.93;98722.66;2086634;28;20049;-52
2023/08/08 01:06:58;;;;;;;1.60;1.25;;;;;;;24.77;34.77;98736.91;2087887;28;20532;-50
2023/08/08 01:08:05;;;;;;;0.20;0.20;;;;;;;24.77;34.63;98734.22;2087293;28;20044;-53
2023/08/08 01:09:12;;;;;;;2.92;0.88;;;;;;;24.72;34.70;98735.78;2085097;28;20452;-47
2023/08/08 01:10:17;;;;;;;0.47;0.40;;;;;;;24.69;34.78;98738.16;2086449;28;20097;-48
2023/08/08 01:11:19;;;;;;;1.70;0.45;;;;;;;24.66;34.63;98736.75;2084535;28;20378;-53
2023/08/08 01:12:20;;;;;;;0.70;0.30;;;;;;;24.66;34.72;98735.94;2086564;28;20105;-53
2023/08/08 01:13:25;;;;;;;1.73;0.47;;;;;;;24.64;34.95;98733.44;2088741;28;20044;-52
2023/08/08 01:14:28;;;;;;;1.02;0.73;;;;;;;24.59;34.96;98743.38;2087938;28;20051;-52
2023/08/08 01:15:35;;;;;;;1.58;0.57;;;;;;;24.55;34.91;98744.91;2088577;28;20048;-52
2023/08/08 01:16:36;;;;;;;0.93;0.25;;;;;;;24.53;34.70;98750.56;2086436;28;20136;-54
2023/08/08 01:17:39;;;;;;;1.00;0.40;;;;;;;24.56;34.68;98747.38;2086997;28;20528;-52
2023/08/08 01:18:41;;;;;;;1.58;0.60;;;;;;;24.60;34.83;98743.13;2086358;28;20051;-55
2023/08/08 01:19:44;;;;;;;3.85;0.55;;;;;;;24.61;34.86;98739.34;2085172;28;20287;-51
2023/08/08 01:20:47;;;;;;;1.33;0.47;;;;;;;24.63;34.88;98739.94;2085831;28;20102;-50
2023/08/08 01:21:53;;;;;;;0.68;0.60;;;;;;;24.61;34.69;98747.50;2086537;28;20135;-50
2023/08/08 01:23:07;;;;;;;1.10;0.50;;;;;;;24.62;34.62;98741.00;2087196;28;20059;-49
2023/08/08 01:24:18;;;;;;;3.70;0.40;;;;;;;24.64;34.57;98744.28;2084904;28;20056;-55
2023/08/08 01:25:20;;;;;;;1.70;0.85;;;;;;;24.67;34.40;98748.41;2085751;28;20148;-50
2023/08/08 01:26:23;;;;;;;2.47;0.77;;;;;;;24.71;34.87;98742.28;2086863;28;20044;-54
2023/08/08 01:27:24;;;;;;;0.57;0.50;;;;;;;24.75;34.66;98739.91;2084933;28;20048;-50
2023/08/08 01:28:26;;;;;;;0.45;0.35;;;;;;;24.78;34.91;98752.97;2085416;28;20052;-48
2023/08/08 01:29:28;;;;;;;0.68;0.40;;;;;;;24.80;35.10;98744.59;2087285;28;20075;-47
2023/08/08 01:30:29;;;;;;;1.02;0.40;;;;;;;24.81;34.97;98748.97;2084943;28;20111;-50
2023/08/08 01:31:30;;;;;;;3.03;0.82;;;;;;;24.82;34.60;98745.97;2085607;28;20053;-48
2023/08/08 01:32:32;;;;;;;0.55;0.30;;;;;;;24.82;35.15;98740.56;2087548;28;20158;-48
2023/08/08 01:33:33;;;;;;;0.98;0.50;;;;;;;24.82;35.22;98737.84;2085984;28;20384;-47
2023/08/08 01:34:35;;;;;;;0.73;0.20;;;;;;;24.80;34.78;98745.44;2087080;28;20078;-52
2023/08/08 01:35:39;;;;;;;0.60;0.40;;;;;;;24.84;35.38;98735.72;2085246;28;20060;-53
2023/08/08 01:36:49;;;;;;;1.05;0.43;;;;;;;24.79;35.07;98737.50;2084882;28;20060;-54
2023/08/08 01:37:54;;;;;;;1.05;0.75;;;;;;;24.72;34.45;98738.50;2085337;28;20045;-52
2023/08/08 01:39:03;;;;;;;0.45;0.30;;;;;;;24.65;34.54;98742.41;2085251;28;20149;-51
2023/08/08 01:40:09;;;;;;;1.63;0.70;;;;;;;24.57;34.41;98745.47;2084338;28;20491;-54
2023/08/08 01:41:11;;;;;;;0.65;0.40;;;;;;;24.54;34.66;98741.38;2085453;28;20554;-50
2023/08/08 01:42:14;;;;;;;0.55;0.28;;;;;;;24.60;34.45;98743.13;2087360;28;20600;-47
2023/08/08 01:43:16;;;;;;;2.00;0.32;;;;;;;24.66;34.82;98739.47;2084334;28;20154;-49
2023/08/08 01:44:18;;;;;;;2.03;0.60;;;;;;;24.70;34.79;98740.59;2086046;28;20057;-51
2023/08/08 01:45:20;;;;;;;4.65;0.45;;;;;;;24.75;34.91;98740.72;2085310;28;20135;-47
2023/08/08 01:46:24;;;;;;;1.10;0.40;;;;;;;24.77;34.85;98740.50;2085630;28;20475;-53
2023/08/08 01:47:25;;;;;;;3.67;0.60;;;;;;;24.78;35.14;98744.84;2083349;28;20586;-52
2023/08/08 01:48:28;;;;;;;1.13;0.57;;;;;;;24.78;35.41;98749.44;2086746;28;20131;-48
2023/08/08 01:49:29;;;;;;;2.78;0.68;;;;;;;24.80;35.16;98741.91;2085130;28;20056;-50
2023/08/08 01:50:31;;;;;;;1.15;0.38;;;;;;;24.80;35.38;98747.31;2084795;28;20558;-50
2023/08/08 01:51:32;;;;;;;0.35;0.20;;;;;;;24.83;35.53;98738.69;2085407;28;20045;-52
2023/08/08 01:52:34;;;;;;;0.77;0.40;;;;;;;24.84;35.19;98745.75;2085681;28;20131;-53
2023/08/08 01:53:34;;;;;;;1.20;1.02;;;;;;;24.83;35.38;98749.53;2085416;28;20367;-48
2023/08/08 01:54:36;;;;;;;0.77;0.38;;;;;;;24.85;35.59;98742.81;2087712;28;20059;-49
2023/08/08 01:55:39;;;;;;;0.85;0.40;;;;;;;24.84;35.05;98743.03;2084831;28;20411;-51
2023/08/08 01:56:41;;;;;;;1.25;0.40;;;;;;;24.83;35.47;98738.69;2087203;28;20048;-49
2023/08/08 01:57:42;;;;;;;0.52;0.30;;;;;;;24.83;34.93;98738.69;2083012;28;20419;-52
2023/08/08 01:58:44;;;;;;;0.30;0.20;;;;;;;24.80;35.11;98740.00;2084381;28;20454;-54
2023/08/08 01:59:45;;;;;;;1.30;0.40;;;;;;;24.83;34.85;98727.84;2086677;28;20123;-54
2023/08/08 02:00:47;;;;;;;2.03;0.60;;;;;;;24.80;35.08;98729.16;2088378;28;20313;-51
2023/08/08 02:01:49;;;;;;;1.20;0.35;;;;;;;24.75;34.85;98735.28;2086272;28;20044;-53
2023/08/08 02:02:50;;;;;;;0.52;0.20;;;;;;;24.73;34.95;98726.56;2087593;28;20048;-52
2023/08/08 02:03:52;;;;;;;1.02;0.57;;;;;;;24.71;34.58;98730.56;2086192;28;20245;-49
2023/08/08 02:04:53;;;;;;;3.58;0.52;;;;;;;24.66;34.44;98728.59;2085254;28;20049;-51
2023/08/08 02:05:55;;;;;;;1.75;0.30;;;;;;;24.65;34.64;98720.69;2084475;28;20511;-47
2023/08/08 02:06:56;;;;;;;1.02;0.57;;;;;;;24.65;34.67;98715.28;2086013;28;20044;-53
2023/08/08 02:07:58;;;;;;;1.40;0.43;;;;;;;24.64;34.74;98714.47;2086919;28;20137;-48
2023/08/08 02:08:59;;;;;;;1.40;0.65;;;;;;;24.66;34.91;98711.53;2086833;28;20047;-52
2023/08/08 02:10:01;;;;;;;1.45;0.70;;;;;;;24.66;34.67;98715.03;2083487;28;20158;-53
2023/08/08 02:11:03;;;;;;;0.98;0.32;;;;;;;24.67;34.41;98713.16;2085664;28;20045;-53
2023/08/08 02:12:05;;;;;;;0.30;0.30;;;;;;;24.68;34.32;98709.38;2084630;28;20076;-48
2023/08/08 02:13:06;;;;;;;0.70;0.50;;;;;;;24.71;34.38;98709.72;2085257;28;20827;-52
2023/08/08 02:14:08;;;;;;;1.27;0.50;;;;;;;24.73;34.53;98715.72;2087636;28;20226;-47
2023/08/08 02:15:09;;;;;;;1.67;0.50;;;;;;;24.74;34.91;98711.13;2085907;28;20346;-50
2023/08/08 02:16:11;;;;;;;2.28;0.43;;;;;;;24.74;35.04;98711.13;2086623;28;20057;-50
2023/08/08 02:17:12;;;;;;;1.35;0.52;;;;;;;24.74;35.42;98713.84;2084371;28;20053;-51
2023/08/08 02:18:14;;;;;;;2.50;0.75;;;;;;;24.74;35.05;98716.56;2087713;28;20191;-47
2023/08/08 02:19:15;;;;;;;0.50;0.30;;;;;;;24.74;35.25;98708.44;2076046;28;20056;-52
2023/08/08 02:20:17;;;;;;;0.57;0.43;;;;;;;24.75;35.08;98720.91;2082981;28;20244;-48
2023/08/08 02:21:18;;;;;;;3.15;0.40;;;;;;;24.69;35.58;98711.84;2086662;28;20175;-52
2023/08/08 02:22:20;;;;;;;0.93;0.45;;;;;;;24.68;35.41;98710.22;2083616;28;21450;-52
2023/08/08 02:23:21;;;;;;;0.30;0.30;;;;;;;24.63;35.60;98715.53;2087089;28;20053;-55
2023/08/08 02:24:23;;;;;;;2.00;0.32;;;;;;;24.60;35.45;98712.47;2077293;28;20791;-47
2023/08/08 02:25:24;;;;;;;2.78;0.50;;;;;;;24.61;35.63;98712.22;2075241;28;20103;-52
2023/08/08 02:26:27;;;;;;;1.23;0.40;;;;;;;24.59;35.37;98714.34;2075306;28;20120;-52
2023/08/08 02:27:28;;;;;;;1.80;0.40;;;;;;;24.60;35.56;98710.59;2077443;28;20435;-50
2023/08/08 02:28:30;;;;;;;2.00;0.52;;;;;;;24.58;35.65;98712.72;2075594;28;20050;-49
2023/08/08 02:29:31;;;;;;;1.30;0.38;;;;;;;24.55;35.67;98710.50;2077637;28;20131;-49
2023/08/08 02:30:32;;;;;;;0.93;0.40;;;;;;;24.58;35.19;98712.72;2078268;28;20064;-51
2023/08/08 02:31:33;;;;;;;0.60;0.30;;;;;;;24.57;35.34;98718.38;2081723;28;20052;-50
2023/08/08 02:32:35;;;;;;;0.50;0.30;;;;;;;24.58;34.84;98717.31;2077873;28;20053;-50
2023/08/08 02:33:36;;;;;;;2.08;0.40;;;;;;;24.60;35.13;98718.72;2079508;28;20560;-53
2023/08/08 02:34:38;;;;;;;1.38;0.50;;;;;;;24.62;35.10;98724.72;2077490;28;20049;-51
2023/08/08 02:35:39;;;;;;;0.40;0.30;;;;;;;24.66;34.96;98722.38;2080562;28;20052;-53
2023/08/08 02:36:41;;;;;;;0.73;0.45;;;;;;;24.69;34.94;98727.31;2079297;28;20099;-53
2023/08/08 02:37:42;;;;;;;2.05;0.50;;;;;;;24.70;34.94;98731.66;2079721;28;21725;-48
2023/08/08 02:38:44;;;;;;;0.25;0.25;;;;;;;24.69;34.85;98725.41;2079328;28;20114;-53
2023/08/08 02:39:46;;;;;;;2.40;0.60;;;;;;;24.67;35.05;98730.25;2078486;28;20597;-52
2023/08/08 02:40:48;;;;;;;3.33;0.95;;;;;;;24.64;35.17;98730.72;2081205;28;20106;-53
2023/08/08 02:41:50;;;;;;;0.85;0.47;;;;;;;24.65;35.10;98732.38;2079484;28;20079;-52
2023/08/08 02:42:52;;;;;;;3.17;0.47;;;;;;;24.65;34.86;98723.41;2076986;28;20068;-55
2023/08/08 02:43:53;;;;;;;2.35;0.52;;;;;;;24.66;35.47;98731.31;2080919;28;20057;-52
2023/08/08 02:44:55;;;;;;;0.50;0.30;;;;;;;24.65;35.56;98729.66;2077276;28;20567;-52
2023/08/08 02:45:56;;;;;;;0.60;0.38;;;;;;;24.67;35.18;98735.66;2080306;28;20041;-52
2023/08/08 02:46:58;;;;;;;0.70;0.40;;;;;;;24.66;35.51;98725.91;2079967;28;20363;-51
2023/08/08 02:47:59;;;;;;;1.42;0.68;;;;;;;24.68;35.21;98723.78;2077943;28;20155;-51
2023/08/08 02:49:01;;;;;;;2.75;0.55;;;;;;;24.73;35.23;98729.28;2080824;28;20037;-52
2023/08/08 02:50:01;;;;;;;3.35;0.68;;;;;;;24.69;35.54;98722.69;2075800;28;20522;-54
2023/08/08 02:51:03;;;;;;;0.82;0.30;;;;;;;24.69;35.54;98721.88;2079241;28;20051;-54
2023/08/08 02:52:05;;;;;;;0.55;0.30;;;;;;;24.65;35.13;98720.69;2080180;28;20057;-53
2023/08/08 02:53:06;;;;;;;0.45;0.38;;;;;;;24.63;35.35;98720.13;2081043;28;20049;-52
2023/08/08 02:54:07;;;;;;;2.00;0.47;;;;;;;24.65;35.33;98720.69;2081560;28;20510;-50
2023/08/08 02:55:09;;;;;;;0.50;0.30;;;;;;;24.65;35.55;98720.69;2080461;28;20045;-54
2023/08/08 02:56:10;;;;;;;1.38;0.68;;;;;;;24.63;35.30;98722.84;2081707;28;20600;-48
2023/08/08 02:57:14;;;;;;;2.05;0.30;;;;;;;24.64;35.39;98719.06;2081510;28;20491;-49
2023/08/08 02:58:15;;;;;;;2.85;0.68;;;;;;;24.63;35.47;98718.25;2078943;28;21560;-51
2023/08/08 02:59:17;;;;;;;0.63;0.28;;;;;;;24.66;35.84;98723.19;2079617;28;20139;-48
2023/08/08 03:00:18;;;;;;;0.43;0.43;;;;;;;24.65;35.86;98721.53;2080987;28;20053;-54
2023/08/08 03:01:21;;;;;;;0.45;0.43;;;;;;;24.63;35.62;98722.84;2082168;28;20049;-47
2023/08/08 03:02:22;;;;;;;0.85;0.65;;;;;;;24.63;36.01;98726.38;2079370;28;20072;-53
2023/08/08 03:03:24;;;;;;;0.55;0.30;;;;;;;24.63;35.72;98726.38;2081162;28;20060;-53
2023/08/08 03:04:25;;;;;;;0.57;0.25;;;;;;;24.57;35.69;98721.91;2079923;28;20052;-48
2023/08/08 03:05:27;;;;;;;1.90;1.15;;;;;;;24.52;35.84;98721.81;2080602;28;20041;-48
2023/08/08 03:06:27;;;;;;;0.55;0.30;;;;;;;24.37;36.05;98719.56;2088122;28;20574;-55
2023/08/08 03:07:29;;;;;;;0.68;0.40;;;;;;;24.19;36.12;98717.84;2086155;28;21229;-53
2023/08/08 03:08:30;;;;;;;0.60;0.43;;;;;;;24.15;36.33;98719.38;2088141;28;20691;-51
2023/08/08 03:09:32;;;;;;;1.55;0.40;;;;;;;24.19;36.54;98723.25;2089483;28;20056;-50
2023/08/08 03:10:33;;;;;;;0.40;0.40;;;;;;;24.18;36.41;98721.63;2086320;28;20435;-47
2023/08/08 03:11:37;;;;;;;0.22;0.20;;;;;;;24.23;36.44;98724.41;2086260;28;20926;-49
2023/08/08 03:12:39;;;;;;;0.40;0.30;;;;;;;24.24;36.20;98720.66;2088311;28;20048;-48
2023/08/08 03:13:41;;;;;;;0.28;0.28;;;;;;;24.20;36.11;98724.09;2089358;28;20047;-53
2023/08/08 03:14:42;;;;;;;0.85;0.20;;;;;;;24.17;36.02;98736.22;2086247;28;20786;-54
2023/08/08 03:15:44;;;;;;;1.45;0.57;;;;;;;24.16;36.51;98726.44;2086852;28;20423;-49
2023/08/08 03:16:45;;;;;;;1.17;0.50;;;;;;;24.05;36.37;98727.28;2087120;28;20060;-49
2023/08/08 03:17:47;;;;;;;1.00;0.40;;;;;;;24.04;36.21;98725.63;2089054;28;20127;-50
2023/08/08 03:18:48;;;;;;;1.05;0.28;;;;;;;24.06;36.44;98734.34;2087700;28;20045;-50
2023/08/08 03:19:50;;;;;;;1.10;0.63;;;;;;;24.12;36.00;98735.28;2086921;28;20136;-52
2023/08/08 03:20:51;;;;;;;0.77;0.40;;;;;;;24.17;36.33;98736.22;2087434;28;20052;-50
2023/08/08 03:21:52;;;;;;;1.33;0.25;;;;;;;24.22;36.67;98733.63;2087405;28;20167;-49
2023/08/08 03:22:54;;;;;;;1.75;0.30;;;;;;;24.23;36.45;98740.69;2087217;28;20055;-51
2023/08/08 03:23:57;;;;;;;1.13;0.95;;;;;;;24.27;36.80;98744.59;2089681;28;20478;-52
2023/08/08 03:24:59;;;;;;;1.63;0.40;;;;;;;24.27;36.29;98738.34;2086900;28;20049;-51
2023/08/08 03:26:00;;;;;;;4.00;0.32;;;;;;;24.24;36.62;98745.06;2088020;28;20155;-55
2023/08/08 03:27:01;;;;;;;1.35;0.35;;;;;;;24.27;36.63;98746.47;2089130;28;20044;-54
2023/08/08 03:28:04;;;;;;;4.30;0.50;;;;;;;24.26;36.37;98748.34;2090160;28;20048;-49
2023/08/08 03:29:09;;;;;;;1.92;0.40;;;;;;;24.23;36.24;98740.69;2089973;28;20075;-51
2023/08/08 03:30:11;;;;;;;3.20;0.82;;;;;;;24.18;36.31;98748.72;2089471;28;20052;-52
2023/08/08 03:31:13;;;;;;;1.25;0.28;;;;;;;24.12;36.54;98754.25;2089336;28;20053;-47
2023/08/08 03:32:14;;;;;;;1.17;0.30;;;;;;;24.06;35.91;98751.44;2088327;28;20051;-47
2023/08/08 03:33:16;;;;;;;1.65;0.40;;;;;;;24.04;36.08;98753.56;2087090;28;20925;-50
2023/08/08 03:34:17;;;;;;;4.90;0.40;;;;;;;24.04;36.10;98755.44;2088355;28;20072;-48
2023/08/08 03:35:19;;;;;;;0.35;0.22;;;;;;;24.09;35.88;98755.56;2088037;28;20052;-50
2023/08/08 03:36:21;;;;;;;1.42;0.28;;;;;;;24.13;35.88;98748.63;2090447;28;20055;-47
2023/08/08 03:37:22;;;;;;;0.65;0.28;;;;;;;24.18;35.86;98746.03;2090955;28;20393;-49
2023/08/08 03:38:23;;;;;;;0.98;0.38;;;;;;;24.27;36.26;98757.31;2089035;28;20049;-48
2023/08/08 03:39:24;;;;;;;0.77;0.40;;;;;;;24.29;35.95;98756.03;2089320;28;20119;-47
2023/08/08 03:40:26;;;;;;;0.77;0.35;;;;;;;24.32;36.24;98754.69;2089641;28;20400;-49
2023/08/08 03:41:27;;;;;;;4.05;0.50;;;;;;;24.35;36.15;98753.41;2087054;28;20051;-51
2023/08/08 03:42:29;;;;;;;0.20;0.20;;;;;;;24.35;36.08;98753.41;2087918;28;20135;-50
2023/08/08 03:43:31;;;;;;;2.00;0.43;;;;;;;24.38;36.06;98745.63;2085963;28;20063;-53
2023/08/08 03:44:33;;;;;;;0.85;0.40;;;;;;;24.36;36.09;98747.75;2086791;28;20961;-52
2023/08/08 03:45:34;;;;;;;2.35;0.40;;;;;;;24.31;36.01;98748.44;2087580;28;20060;-50
2023/08/08 03:46:36;;;;;;;0.60;0.30;;;;;;;24.30;36.16;98746.81;2087313;28;20053;-48
2023/08/08 03:47:37;;;;;;;1.05;0.32;;;;;;;24.27;36.21;98738.34;2088311;28;20048;-53
2023/08/08 03:48:39;;;;;;;2.38;0.55;;;;;;;24.28;35.99;98740.81;2089917;28;20486;-52
2023/08/08 03:49:39;;;;;;;2.75;0.40;;;;;;;24.27;36.34;98741.88;2085613;28;20044;-49
2023/08/08 03:50:41;;;;;;;0.40;0.30;;;;;;;24.26;36.09;98737.50;2087189;28;20552;-52
2023/08/08 03:51:43;;;;;;;0.45;0.40;;;;;;;24.27;36.29;98741.06;2087581;28;20057;-52
2023/08/08 03:52:45;;;;;;;2.63;0.50;;;;;;;24.28;36.38;98740.81;2086511;28;20074;-52
2023/08/08 03:53:46;;;;;;;0.77;0.45;;;;;;;24.28;36.00;98738.09;2085322;28;20044;-52
2023/08/08 03:54:48;;;;;;;0.75;0.38;;;;;;;24.27;36.44;98738.34;2085228;28;20072;-52
2023/08/08 03:55:49;;;;;;;1.40;0.40;;;;;;;24.27;36.64;98738.34;2087566;28;20068;-53
2023/08/08 03:56:51;;;;;;;0.45;0.30;;;;;;;24.24;36.58;98736.94;2088556;28;20040;-51
2023/08/08 03:57:52;;;;;;;0.35;0.30;;;;;;;24.23;36.26;98732.56;2086171;28;20075;-55
2023/08/08 03:58:56;;;;;;;3.22;0.35;;;;;;;24.20;36.19;98724.91;2086334;28;20654;-52
2023/08/08 03:59:57;;;;;;;0.47;0.40;;;;;;;24.19;36.44;98731.41;2085251;28;20041;-50
2023/08/08 04:00:59;;;;;;;0.70;0.45;;;;;;;24.23;36.24;98729.84;2085176;28;20055;-48
2023/08/08 04:02:00;;;;;;;0.47;0.25;;;;;;;24.25;36.61;98733.16;2087284;28;20056;-50
2023/08/08 04:03:01;;;;;;;1.98;0.38;;;;;;;24.26;36.64;98729.38;2087604;28;20136;-53
2023/08/08 04:04:03;;;;;;;4.97;0.70;;;;;;;24.25;36.41;98732.34;2086056;28;20052;-48
2023/08/08 04:05:05;;;;;;;0.82;0.35;;;;;;;24.27;36.74;98725.59;2087723;28;20426;-51
2023/08/08 04:06:06;;;;;;;1.13;0.47;;;;;;;24.25;36.45;98732.34;2088342;28;21314;-47
2023/08/08 04:07:08;;;;;;;1.95;1.42;;;;;;;24.25;36.54;98729.63;2086889;28;20041;-53
2023/08/08 04:08:08;;;;;;;1.63;0.43;;;;;;;24.24;36.85;98728.81;2087172;28;21433;-52
2023/08/08 04:09:11;;;;;;;2.47;0.50;;;;;;;24.15;36.41;98732.91;2085396;28;20040;-55
2023/08/08 04:10:11;;;;;;;1.17;0.75;;;;;;;24.18;36.54;98729.75;2085524;28;20055;-52
2023/08/08 04:11:13;;;;;;;1.23;0.30;;;;;;;24.18;36.46;98732.47;2087151;28;20050;-50
2023/08/08 04:12:14;;;;;;;1.08;0.30;;;;;;;24.18;36.49;98728.91;2087968;28;20049;-53
2023/08/08 04:13:16;;;;;;;1.45;0.35;;;;;;;24.20;36.67;98732.22;2087970;28;20040;-54
2023/08/08 04:14:18;;;;;;;0.55;0.30;;;;;;;24.22;36.63;98732.81;2084725;28;20056;-52
2023/08/08 04:15:20;;;;;;;0.63;0.20;;;;;;;24.23;36.24;98724.41;2086502;28;20226;-52
2023/08/08 04:16:21;;;;;;;1.35;0.30;;;;;;;24.21;36.54;98734.69;2087639;28;21387;-49
2023/08/08 04:17:23;;;;;;;1.15;0.32;;;;;;;24.18;36.45;98727.06;2088112;28;20123;-50
2023/08/08 04:18:24;;;;;;;0.57;0.50;;;;;;;24.20;36.41;98724.09;2085617;28;20068;-52
2023/08/08 04:19:26;;;;;;;1.00;0.47;;;;;;;24.18;36.71;98729.75;2085955;28;20653;-51
2023/08/08 04:20:27;;;;;;;0.82;0.50;;;;;;;24.14;36.67;98725.84;2087855;28;20044;-52
2023/08/08 04:21:32;;;;;;;0.95;0.50;;;;;;;24.12;36.82;98730.69;2085955;28;20052;-50
2023/08/08 04:22:32;;;;;;;2.40;1.00;;;;;;;24.10;36.54;98732.84;2086460;28;20056;-47
2023/08/08 04:23:34;;;;;;;1.55;0.30;;;;;;;24.01;36.57;98728.81;2086006;28;20132;-47
2023/08/08 04:24:35;;;;;;;1.85;0.50;;;;;;;23.98;36.76;98738.22;2087907;28;20076;-49
2023/08/08 04:25:37;;;;;;;0.43;0.30;;;;;;;23.97;36.43;98743.91;2085485;28;20055;-54
2023/08/08 04:26:38;;;;;;;1.60;0.40;;;;;;;23.98;36.44;98737.41;2087234;28;20479;-50
2023/08/08 04:27:40;;;;;;;1.23;0.40;;;;;;;23.97;36.74;98741.19;2086609;28;20056;-50
2023/08/08 04:28:41;;;;;;;0.40;0.30;;;;;;;23.93;36.25;98746.28;2086443;28;20590;-50
2023/08/08 04:29:45;;;;;;;1.00;0.40;;;;;;;23.92;36.21;98749.19;2088788;28;20052;-53
2023/08/08 04:30:46;;;;;;;1.00;0.40;;;;;;;23.94;35.95;98757.94;2088493;28;20048;-47
2023/08/08 04:31:48;;;;;;;1.58;0.70;;;;;;;23.95;36.09;98754.16;2088310;28;20072;-51
2023/08/08 04:32:49;;;;;;;0.80;0.28;;;;;;;23.96;36.42;98762.03;2086989;28;20048;-49
2023/08/08 04:33:51;;;;;;;0.60;0.22;;;;;;;23.97;36.15;98760.16;2086460;28;20048;-47
2023/08/08 04:34:52;;;;;;;2.40;0.70;;;;;;;23.92;36.33;98768.16;2087560;28;20049;-56
2023/08/08 04:35:54;;;;;;;1.05;0.80;;;;;;;23.90;36.20;98767.56;2085884;28;20047;-48
2023/08/08 04:36:55;;;;;;;2.65;0.50;;;;;;;23.90;36.05;98762.16;2084759;28;20071;-50
2023/08/08 04:37:57;;;;;;;1.40;0.60;;;;;;;23.88;35.94;98772.41;2088073;28;20091;-48
2023/08/08 04:38:57;;;;;;;0.40;0.40;;;;;;;23.82;35.93;98775.00;2086493;28;20406;-51
2023/08/08 04:39:59;;;;;;;0.77;0.40;;;;;;;23.83;35.69;98767.69;2086575;28;20059;-50
2023/08/08 04:41:00;;;;;;;2.67;0.30;;;;;;;23.80;35.61;98773.56;2087267;28;20287;-48
2023/08/08 04:42:02;;;;;;;3.40;0.77;;;;;;;23.83;35.59;98773.94;2085741;28;20128;-52
2023/08/08 04:43:03;;;;;;;2.28;0.30;;;;;;;23.78;35.58;98764.84;2086525;28;20044;-51
2023/08/08 04:44:05;;;;;;;1.10;0.50;;;;;;;23.79;35.56;98772.75;2086197;28;20044;-50
2023/08/08 04:45:09;;;;;;;1.33;0.30;;;;;;;23.84;35.69;98766.63;2085636;28;20072;-52
2023/08/08 04:46:10;;;;;;;1.58;0.60;;;;;;;23.86;35.52;98773.44;2089184;28;20048;-47
2023/08/08 04:47:11;;;;;;;1.75;0.38;;;;;;;23.88;35.52;98775.94;2087036;28;20045;-49
2023/08/08 04:48:13;;;;;;;4.45;0.57;;;;;;;23.90;35.52;98771.09;2086953;28;20105;-47
2023/08/08 04:49:14;;;;;;;0.43;0.40;;;;;;;23.89;34.92;98777.59;2086002;28;20036;-50
2023/08/08 04:50:16;;;;;;;0.30;0.20;;;;;;;23.93;35.76;98773.34;2087309;28;20047;-52
2023/08/08 04:51:17;;;;;;;2.92;0.70;;;;;;;23.88;35.48;98765.09;2088969;28;20044;-55
2023/08/08 04:52:19;;;;;;;0.50;0.45;;;;;;;23.89;35.22;98768.63;2087189;28;20470;-54